< < Back
Terminal Aerodrome Forecast


Current Version              Previous Versions:   1  2  3  4  5  6  7  8  9  

Terminal Aerodrome Forecast

807
FTUS42 KILM 221500 AAB
TAFILM
TAF AMD
KILM 221541Z 2216/2312 11008KT P6SM TSRA SCT015 BKN020CB OVC030
      TEMPO 2216/2219 3SM RA BR BKN010
     FM230000 18005KT P6SM VCSH FEW020 BKN150
     FM230600 24003KT P6SM BKN030 OVC150=

Latest METAR

450
SAUS70 KWBC 221500 RRA
MTRILM
METAR KILM 221453Z AUTO 10004KT 10SM BKN015 BKN021 OVC030 27/23 A3012
RMK AO2 SLP200 T02670233 50004 $


USA.gov is the U.S. government's official web portal to all federal, state and local government web resources and services.